sensor_id;sensor_type;location;lat;lon;timestamp;temperature;humidity
19344;DHT22;9808;52.402;16.678;2022-10-13T00:00:49;7.30;90.80
19344;DHT22;9808;52.402;16.678;2022-10-13T00:03:16;5.20;89.20
19344;DHT22;9808;52.402;16.678;2022-10-13T00:05:46;5.20;87.80
19344;DHT22;9808;52.402;16.678;2022-10-13T00:08:15;5.40;87.50
19344;DHT22;9808;52.402;16.678;2022-10-13T00:10:46;4.80;87.70
19344;DHT22;9808;52.402;16.678;2022-10-13T00:13:14;7.20;89.60
19344;DHT22;9808;52.402;16.678;2022-10-13T00:15:43;8.00;90.20
19344;DHT22;9808;52.402;16.678;2022-10-13T00:18:10;7.10;90.30
19344;DHT22;9808;52.402;16.678;2022-10-13T00:20:41;5.00;91.00
19344;DHT22;9808;52.402;16.678;2022-10-13T00:23:09;4.90;90.70
19344;DHT22;9808;52.402;16.678;2022-10-13T00:25:40;5.30;91.60
19344;DHT22;9808;52.402;16.678;2022-10-13T00:28:07;5.40;94.10
19344;DHT22;9808;52.402;16.678;2022-10-13T00:30:35;5.40;94.00
19344;DHT22;9808;52.402;16.678;2022-10-13T00:33:03;7.20;94.80
19344;DHT22;9808;52.402;16.678;2022-10-13T00:35:29;5.30;93.90
19344;DHT22;9808;52.402;16.678;2022-10-13T00:37:56;5.30;94.30
19344;DHT22;9808;52.402;16.678;2022-10-13T00:40:23;5.30;94.40
19344;DHT22;9808;52.402;16.678;2022-10-13T00:42:50;5.20;94.10
19344;DHT22;9808;52.402;16.678;2022-10-13T00:45:24;5.20;93.10
19344;DHT22;9808;52.402;16.678;2022-10-13T00:47:58;5.20;92.40
19344;DHT22;9808;52.402;16.678;2022-10-13T00:50:34;5.20;91.10
19344;DHT22;9808;52.402;16.678;2022-10-13T00:53:02;5.10;89.40
19344;DHT22;9808;52.402;16.678;2022-10-13T00:55:33;6.70;91.40
19344;DHT22;9808;52.402;16.678;2022-10-13T00:58:05;6.60;91.90
19344;DHT22;9808;52.402;16.678;2022-10-13T01:00:33;5.00;90.80
19344;DHT22;9808;52.402;16.678;2022-10-13T01:03:01;5.00;90.10
19344;DHT22;9808;52.402;16.678;2022-10-13T01:05:29;5.70;90.40
19344;DHT22;9808;52.402;16.678;2022-10-13T01:07:57;7.00;91.40
19344;DHT22;9808;52.402;16.678;2022-10-13T01:16:14;6.60;91.80
19344;DHT22;9808;52.402;16.678;2022-10-13T01:24:57;4.90;92.50
19344;DHT22;9808;52.402;16.678;2022-10-13T01:27:58;4.80;92.50
19344;DHT22;9808;52.402;16.678;2022-10-13T01:30:38;4.80;93.20
19344;DHT22;9808;52.402;16.678;2022-10-13T01:35:56;6.30;96.60
19344;DHT22;9808;52.402;16.678;2022-10-13T01:38:28;4.80;95.80
19344;DHT22;9808;52.402;16.678;2022-10-13T01:46:26;4.70;96.60
19344;DHT22;9808;52.402;16.678;2022-10-13T01:48:58;4.70;96.90
19344;DHT22;9808;52.402;16.678;2022-10-13T01:51:28;4.60;96.70
19344;DHT22;9808;52.402;16.678;2022-10-13T01:53:56;4.60;96.40
19344;DHT22;9808;52.402;16.678;2022-10-13T01:56:23;5.10;96.60
19344;DHT22;9808;52.402;16.678;2022-10-13T01:58:51;6.10;96.80
19344;DHT22;9808;52.402;16.678;2022-10-13T02:07:05;4.60;99.90
19344;DHT22;9808;52.402;16.678;2022-10-13T02:12:38;4.60;99.90
19344;DHT22;9808;52.402;16.678;2022-10-13T02:15:11;4.60;99.90
19344;DHT22;9808;52.402;16.678;2022-10-13T02:17:40;4.60;99.90
19344;DHT22;9808;52.402;16.678;2022-10-13T02:20:07;4.60;99.90
19344;DHT22;9808;52.402;16.678;2022-10-13T02:22:39;4.60;99.90
19344;DHT22;9808;52.402;16.678;2022-10-13T02:25:07;4.60;99.90
19344;DHT22;9808;52.402;16.678;2022-10-13T02:27:34;4.60;99.90
19344;DHT22;9808;52.402;16.678;2022-10-13T02:30:01;4.50;99.90
19344;DHT22;9808;52.402;16.678;2022-10-13T02:32:27;4.50;99.90
19344;DHT22;9808;52.402;16.678;2022-10-13T02:34:54;6.40;99.90
19344;DHT22;9808;52.402;16.678;2022-10-13T02:37:21;6.40;99.90
19344;DHT22;9808;52.402;16.678;2022-10-13T02:39:51;4.50;99.90
19344;DHT22;9808;52.402;16.678;2022-10-13T02:42:18;4.40;99.90
19344;DHT22;9808;52.402;16.678;2022-10-13T02:44:45;4.40;99.90
19344;DHT22;9808;52.402;16.678;2022-10-13T02:47:12;4.40;99.90
19344;DHT22;9808;52.402;16.678;2022-10-13T02:49:39;4.40;99.90
19344;DHT22;9808;52.402;16.678;2022-10-13T02:52:06;6.80;99.90
19344;DHT22;9808;52.402;16.678;2022-10-13T02:54:33;4.30;99.90
19344;DHT22;9808;52.402;16.678;2022-10-13T02:56:59;4.30;99.90
19344;DHT22;9808;52.402;16.678;2022-10-13T02:59:26;6.20;99.90
19344;DHT22;9808;52.402;16.678;2022-10-13T03:01:53;4.30;99.90
19344;DHT22;9808;52.402;16.678;2022-10-13T03:04:20;4.30;99.90
19344;DHT22;9808;52.402;16.678;2022-10-13T03:06:47;4.20;99.90
19344;DHT22;9808;52.402;16.678;2022-10-13T03:09:13;5.60;99.90
19344;DHT22;9808;52.402;16.678;2022-10-13T03:11:40;5.70;99.90
19344;DHT22;9808;52.402;16.678;2022-10-13T03:14:07;4.20;99.90
19344;DHT22;9808;52.402;16.678;2022-10-13T03:16:34;4.10;99.90
19344;DHT22;9808;52.402;16.678;2022-10-13T03:19:00;4.20;99.90
19344;DHT22;9808;52.402;16.678;2022-10-13T03:21:27;5.00;99.90
19344;DHT22;9808;52.402;16.678;2022-10-13T03:23:54;4.20;99.90
19344;DHT22;9808;52.402;16.678;2022-10-13T03:26:21;5.70;99.90
19344;DHT22;9808;52.402;16.678;2022-10-13T03:28:49;6.10;99.90
19344;DHT22;9808;52.402;16.678;2022-10-13T03:31:16;4.10;99.90
19344;DHT22;9808;52.402;16.678;2022-10-13T03:33:44;4.20;99.90
19344;DHT22;9808;52.402;16.678;2022-10-13T03:36:12;4.20;99.90
19344;DHT22;9808;52.402;16.678;2022-10-13T03:38:39;4.10;99.90
19344;DHT22;9808;52.402;16.678;2022-10-13T03:41:12;4.70;99.90
19344;DHT22;9808;52.402;16.678;2022-10-13T03:43:41;4.20;99.90
19344;DHT22;9808;52.402;16.678;2022-10-13T03:46:10;4.20;99.90
19344;DHT22;9808;52.402;16.678;2022-10-13T03:48:38;4.20;99.90
19344;DHT22;9808;52.402;16.678;2022-10-13T03:51:14;4.20;99.90
19344;DHT22;9808;52.402;16.678;2022-10-13T03:53:41;4.10;99.90
19344;DHT22;9808;52.402;16.678;2022-10-13T03:56:12;4.20;99.90
19344;DHT22;9808;52.402;16.678;2022-10-13T03:58:40;4.10;99.90
19344;DHT22;9808;52.402;16.678;2022-10-13T04:01:09;4.20;99.90
19344;DHT22;9808;52.402;16.678;2022-10-13T04:03:36;4.10;99.90
19344;DHT22;9808;52.402;16.678;2022-10-13T04:06:04;4.10;99.90
19344;DHT22;9808;52.402;16.678;2022-10-13T04:08:32;4.20;99.90
19344;DHT22;9808;52.402;16.678;2022-10-13T04:11:00;4.10;99.90
19344;DHT22;9808;52.402;16.678;2022-10-13T04:13:27;4.10;99.90
19344;DHT22;9808;52.402;16.678;2022-10-13T04:15:54;4.10;99.90
19344;DHT22;9808;52.402;16.678;2022-10-13T04:18:21;4.00;99.90
19344;DHT22;9808;52.402;16.678;2022-10-13T04:20:48;4.10;99.90
19344;DHT22;9808;52.402;16.678;2022-10-13T04:23:14;4.00;99.90
19344;DHT22;9808;52.402;16.678;2022-10-13T04:25:41;4.10;99.90
19344;DHT22;9808;52.402;16.678;2022-10-13T04:28:10;4.40;99.90
19344;DHT22;9808;52.402;16.678;2022-10-13T04:30:37;5.00;99.90
19344;DHT22;9808;52.402;16.678;2022-10-13T04:33:04;4.10;99.90
19344;DHT22;9808;52.402;16.678;2022-10-13T04:35:31;4.10;99.90
19344;DHT22;9808;52.402;16.678;2022-10-13T04:37:58;4.00;99.90
19344;DHT22;9808;52.402;16.678;2022-10-13T04:40:25;4.00;99.90
19344;DHT22;9808;52.402;16.678;2022-10-13T04:42:53;4.00;99.90
19344;DHT22;9808;52.402;16.678;2022-10-13T04:45:20;3.90;99.90
19344;DHT22;9808;52.402;16.678;2022-10-13T04:47:46;3.90;99.90
19344;DHT22;9808;52.402;16.678;2022-10-13T04:50:13;4.00;99.90
19344;DHT22;9808;52.402;16.678;2022-10-13T04:52:40;3.90;99.90
19344;DHT22;9808;52.402;16.678;2022-10-13T04:55:07;3.90;99.90
19344;DHT22;9808;52.402;16.678;2022-10-13T04:57:35;3.90;99.90
19344;DHT22;9808;52.402;16.678;2022-10-13T05:00:04;3.90;99.90
19344;DHT22;9808;52.402;16.678;2022-10-13T05:02:36;3.90;99.90
19344;DHT22;9808;52.402;16.678;2022-10-13T05:05:04;3.80;99.90
19344;DHT22;9808;52.402;16.678;2022-10-13T05:07:31;3.90;99.90
19344;DHT22;9808;52.402;16.678;2022-10-13T05:09:58;3.90;99.90
19344;DHT22;9808;52.402;16.678;2022-10-13T05:12:25;3.80;99.90
19344;DHT22;9808;52.402;16.678;2022-10-13T05:14:52;4.40;99.90
19344;DHT22;9808;52.402;16.678;2022-10-13T05:17:18;3.90;99.90
19344;DHT22;9808;52.402;16.678;2022-10-13T05:19:45;3.70;99.90
19344;DHT22;9808;52.402;16.678;2022-10-13T05:22:14;3.90;99.90
19344;DHT22;9808;52.402;16.678;2022-10-13T05:24:40;5.10;99.90
19344;DHT22;9808;52.402;16.678;2022-10-13T05:27:09;3.90;99.90
19344;DHT22;9808;52.402;16.678;2022-10-13T05:29:37;3.90;99.90
19344;DHT22;9808;52.402;16.678;2022-10-13T05:32:05;4.00;99.90
19344;DHT22;9808;52.402;16.678;2022-10-13T05:34:32;4.00;99.90
19344;DHT22;9808;52.402;16.678;2022-10-13T05:36:59;6.00;99.90
19344;DHT22;9808;52.402;16.678;2022-10-13T05:39:26;4.00;99.90
19344;DHT22;9808;52.402;16.678;2022-10-13T05:41:53;4.80;99.90
19344;DHT22;9808;52.402;16.678;2022-10-13T05:44:21;5.50;99.90
19344;DHT22;9808;52.402;16.678;2022-10-13T05:46:47;4.10;99.90
19344;DHT22;9808;52.402;16.678;2022-10-13T05:49:15;4.20;99.90
19344;DHT22;9808;52.402;16.678;2022-10-13T05:51:46;4.20;99.90
19344;DHT22;9808;52.402;16.678;2022-10-13T05:54:16;4.30;99.90
19344;DHT22;9808;52.402;16.678;2022-10-13T05:56:51;4.30;99.90
19344;DHT22;9808;52.402;16.678;2022-10-13T05:59:20;4.30;99.90
19344;DHT22;9808;52.402;16.678;2022-10-13T06:01:52;4.40;99.90
19344;DHT22;9808;52.402;16.678;2022-10-13T06:04:25;4.50;99.90
19344;DHT22;9808;52.402;16.678;2022-10-13T06:06:52;4.50;99.90
19344;DHT22;9808;52.402;16.678;2022-10-13T06:09:19;4.50;99.90
19344;DHT22;9808;52.402;16.678;2022-10-13T06:11:46;4.60;99.90
19344;DHT22;9808;52.402;16.678;2022-10-13T06:14:12;4.70;99.90
19344;DHT22;9808;52.402;16.678;2022-10-13T06:16:39;4.70;99.90
19344;DHT22;9808;52.402;16.678;2022-10-13T06:19:07;4.70;99.90
19344;DHT22;9808;52.402;16.678;2022-10-13T06:21:34;4.80;99.90
19344;DHT22;9808;52.402;16.678;2022-10-13T06:24:01;4.60;99.90
19344;DHT22;9808;52.402;16.678;2022-10-13T06:26:28;4.90;99.90
19344;DHT22;9808;52.402;16.678;2022-10-13T06:28:55;5.00;99.90
19344;DHT22;9808;52.402;16.678;2022-10-13T06:31:25;5.10;99.90
19344;DHT22;9808;52.402;16.678;2022-10-13T06:33:52;5.10;99.90
19344;DHT22;9808;52.402;16.678;2022-10-13T06:36:19;5.20;99.90
19344;DHT22;9808;52.402;16.678;2022-10-13T06:38:46;6.60;99.90
19344;DHT22;9808;52.402;16.678;2022-10-13T06:41:13;7.20;99.90
19344;DHT22;9808;52.402;16.678;2022-10-13T06:43:40;6.20;99.90
19344;DHT22;9808;52.402;16.678;2022-10-13T06:46:07;5.50;99.90
19344;DHT22;9808;52.402;16.678;2022-10-13T06:48:34;6.70;99.90
19344;DHT22;9808;52.402;16.678;2022-10-13T06:51:07;6.40;99.90
19344;DHT22;9808;52.402;16.678;2022-10-13T06:53:34;5.70;99.90
19344;DHT22;9808;52.402;16.678;2022-10-13T06:56:03;5.70;99.90
19344;DHT22;9808;52.402;16.678;2022-10-13T06:58:30;5.80;99.90
19344;DHT22;9808;52.402;16.678;2022-10-13T07:00:57;5.80;99.90
19344;DHT22;9808;52.402;16.678;2022-10-13T07:03:24;6.00;99.90
19344;DHT22;9808;52.402;16.678;2022-10-13T07:05:52;6.90;99.90
19344;DHT22;9808;52.402;16.678;2022-10-13T07:08:19;6.10;99.90
19344;DHT22;9808;52.402;16.678;2022-10-13T07:10:46;6.10;99.90
19344;DHT22;9808;52.402;16.678;2022-10-13T07:13:16;6.30;99.90
19344;DHT22;9808;52.402;16.678;2022-10-13T07:15:43;6.30;99.90
19344;DHT22;9808;52.402;16.678;2022-10-13T07:18:09;7.60;99.90
19344;DHT22;9808;52.402;16.678;2022-10-13T07:20:36;6.80;99.90
19344;DHT22;9808;52.402;16.678;2022-10-13T07:23:03;6.90;99.90
19344;DHT22;9808;52.402;16.678;2022-10-13T07:25:30;7.50;99.90
19344;DHT22;9808;52.402;16.678;2022-10-13T07:27:58;9.20;99.90
19344;DHT22;9808;52.402;16.678;2022-10-13T07:30:25;7.00;99.90
19344;DHT22;9808;52.402;16.678;2022-10-13T07:32:53;7.30;99.90
19344;DHT22;9808;52.402;16.678;2022-10-13T07:35:20;9.20;99.90
19344;DHT22;9808;52.402;16.678;2022-10-13T07:37:53;9.10;99.90
19344;DHT22;9808;52.402;16.678;2022-10-13T07:40:20;7.40;99.90
19344;DHT22;9808;52.402;16.678;2022-10-13T07:42:47;9.60;99.90
19344;DHT22;9808;52.402;16.678;2022-10-13T07:45:14;7.60;99.90
19344;DHT22;9808;52.402;16.678;2022-10-13T07:47:41;7.70;99.90
19344;DHT22;9808;52.402;16.678;2022-10-13T07:50:08;7.70;99.90
19344;DHT22;9808;52.402;16.678;2022-10-13T07:52:35;7.90;99.90
19344;DHT22;9808;52.402;16.678;2022-10-13T07:55:03;10.10;99.90
19344;DHT22;9808;52.402;16.678;2022-10-13T07:57:30;8.20;99.90
19344;DHT22;9808;52.402;16.678;2022-10-13T07:59:57;8.90;99.90
19344;DHT22;9808;52.402;16.678;2022-10-13T08:02:27;10.40;99.90
19344;DHT22;9808;52.402;16.678;2022-10-13T08:04:55;8.60;99.90
19344;DHT22;9808;52.402;16.678;2022-10-13T08:07:22;9.20;99.90
19344;DHT22;9808;52.402;16.678;2022-10-13T08:09:49;8.80;99.10
19344;DHT22;9808;52.402;16.678;2022-10-13T08:12:16;9.40;98.40
19344;DHT22;9808;52.402;16.678;2022-10-13T08:14:43;9.10;97.90
19344;DHT22;9808;52.402;16.678;2022-10-13T08:17:10;11.40;97.70
19344;DHT22;9808;52.402;16.678;2022-10-13T08:19:37;10.30;92.40
19344;DHT22;9808;52.402;16.678;2022-10-13T08:22:04;9.30;92.20
19344;DHT22;9808;52.402;16.678;2022-10-13T08:24:35;9.50;91.50
19344;DHT22;9808;52.402;16.678;2022-10-13T08:27:02;9.60;87.80
19344;DHT22;9808;52.402;16.678;2022-10-13T08:29:29;9.70;87.80
19344;DHT22;9808;52.402;16.678;2022-10-13T08:31:55;10.80;81.20
19344;DHT22;9808;52.402;16.678;2022-10-13T08:34:23;10.10;71.50
19344;DHT22;9808;52.402;16.678;2022-10-13T08:36:51;10.00;71.20
19344;DHT22;9808;52.402;16.678;2022-10-13T08:39:20;10.20;67.70
19344;DHT22;9808;52.402;16.678;2022-10-13T08:41:47;10.30;59.90
19344;DHT22;9808;52.402;16.678;2022-10-13T08:44:38;10.50;54.80
19344;DHT22;9808;52.402;16.678;2022-10-13T08:49:55;11.50;33.50
19344;DHT22;9808;52.402;16.678;2022-10-13T08:52:28;10.70;41.20
19344;DHT22;9808;52.402;16.678;2022-10-13T08:54:55;11.20;45.30
19344;DHT22;9808;52.402;16.678;2022-10-13T08:57:24;11.00;34.90
19344;DHT22;9808;52.402;16.678;2022-10-13T08:59:52;11.10;37.70
19344;DHT22;9808;52.402;16.678;2022-10-13T09:02:28;11.10;40.90
19344;DHT22;9808;52.402;16.678;2022-10-13T09:04:58;11.20;34.30
19344;DHT22;9808;52.402;16.678;2022-10-13T09:07:30;11.30;20.80
19344;DHT22;9808;52.402;16.678;2022-10-13T09:09:59;11.40;18.60
19344;DHT22;9808;52.402;16.678;2022-10-13T09:12:26;11.50;17.90
19344;DHT22;9808;52.402;16.678;2022-10-13T09:15:07;11.70;11.20
19344;DHT22;9808;52.402;16.678;2022-10-13T09:17:40;11.60;13.30
19344;DHT22;9808;52.402;16.678;2022-10-13T09:20:24;11.80;16.00
19344;DHT22;9808;52.402;16.678;2022-10-13T09:23:04;12.20;1.00
19344;DHT22;9808;52.402;16.678;2022-10-13T09:25:42;12.10;1.00
19344;DHT22;9808;52.402;16.678;2022-10-13T09:28:26;12.10;1.00
19344;DHT22;9808;52.402;16.678;2022-10-13T09:33:28;12.40;1.00
19344;DHT22;9808;52.402;16.678;2022-10-13T09:38:26;13.10;1.00
19344;DHT22;9808;52.402;16.678;2022-10-13T09:41:04;13.50;1.00
19344;DHT22;9808;52.402;16.678;2022-10-13T09:46:33;12.90;1.00
19344;DHT22;9808;52.402;16.678;2022-10-13T09:49:06;13.00;1.00
19344;DHT22;9808;52.402;16.678;2022-10-13T09:51:41;15.10;1.00
19344;DHT22;9808;52.402;16.678;2022-10-13T09:57:04;13.30;1.00
19344;DHT22;9808;52.402;16.678;2022-10-13T09:59:36;13.30;1.00
19344;DHT22;9808;52.402;16.678;2022-10-13T10:02:18;13.80;1.00
19344;DHT22;9808;52.402;16.678;2022-10-13T10:04:51;13.60;1.00
19344;DHT22;9808;52.402;16.678;2022-10-13T10:07:25;14.60;1.00
19344;DHT22;9808;52.402;16.678;2022-10-13T10:09:58;15.10;1.00
19344;DHT22;9808;52.402;16.678;2022-10-13T10:12:30;13.80;1.00
19344;DHT22;9808;52.402;16.678;2022-10-13T10:14:57;13.80;1.00
19344;DHT22;9808;52.402;16.678;2022-10-13T10:17:42;14.00;1.00
19344;DHT22;9808;52.402;16.678;2022-10-13T10:23:08;14.20;1.00
19344;DHT22;9808;52.402;16.678;2022-10-13T10:25:49;15.70;1.00
19344;DHT22;9808;52.402;16.678;2022-10-13T10:37:24;14.50;99.90
19344;DHT22;9808;52.402;16.678;2022-10-13T10:45:22;14.70;99.90
19344;DHT22;9808;52.402;16.678;2022-10-13T10:47:58;14.70;99.90
19344;DHT22;9808;52.402;16.678;2022-10-13T10:50:28;14.80;99.90
19344;DHT22;9808;52.402;16.678;2022-10-13T10:53:06;14.90;99.90
19344;DHT22;9808;52.402;16.678;2022-10-13T10:55:40;14.90;51.30
19344;DHT22;9808;52.402;16.678;2022-10-13T10:58:25;14.90;99.90
19344;DHT22;9808;52.402;16.678;2022-10-13T11:03:56;15.00;99.90
19344;DHT22;9808;52.402;16.678;2022-10-13T11:06:32;15.10;1.00
19344;DHT22;9808;52.402;16.678;2022-10-13T11:08:59;15.20;1.00
19344;DHT22;9808;52.402;16.678;2022-10-13T11:16:41;15.20;99.90
19344;DHT22;9808;52.402;16.678;2022-10-13T11:19:31;15.30;19.10
19344;DHT22;9808;52.402;16.678;2022-10-13T11:35:22;15.50;1.00
19344;DHT22;9808;52.402;16.678;2022-10-13T11:54:13;17.10;1.00
19344;DHT22;9808;52.402;16.678;2022-10-13T11:56:53;17.70;99.90
19344;DHT22;9808;52.402;16.678;2022-10-13T12:02:18;15.90;1.00
19344;DHT22;9808;52.402;16.678;2022-10-13T12:07:34;16.00;99.90
19344;DHT22;9808;52.402;16.678;2022-10-13T12:10:05;15.90;99.90
19344;DHT22;9808;52.402;16.678;2022-10-13T12:12:33;16.00;1.00
19344;DHT22;9808;52.402;16.678;2022-10-13T12:14:59;16.20;1.00
19344;DHT22;9808;52.402;16.678;2022-10-13T12:17:33;16.20;1.00
19344;DHT22;9808;52.402;16.678;2022-10-13T12:20:23;17.40;1.00
19344;DHT22;9808;52.402;16.678;2022-10-13T12:22:51;16.20;1.00
19344;DHT22;9808;52.402;16.678;2022-10-13T12:25:20;16.10;26.80
19344;DHT22;9808;52.402;16.678;2022-10-13T12:27:53;16.10;1.00
19344;DHT22;9808;52.402;16.678;2022-10-13T12:30:26;16.00;11.70
19344;DHT22;9808;52.402;16.678;2022-10-13T12:32:55;16.00;1.00
19344;DHT22;9808;52.402;16.678;2022-10-13T12:37:52;16.70;1.00
19344;DHT22;9808;52.402;16.678;2022-10-13T12:40:19;17.60;99.90
19344;DHT22;9808;52.402;16.678;2022-10-13T12:42:48;16.60;99.90
19344;DHT22;9808;52.402;16.678;2022-10-13T12:45:18;16.10;1.00
19344;DHT22;9808;52.402;16.678;2022-10-13T12:55:32;16.30;99.90
19344;DHT22;9808;52.402;16.678;2022-10-13T12:57:59;16.40;99.90
19344;DHT22;9808;52.402;16.678;2022-10-13T13:00:28;16.40;1.00
19344;DHT22;9808;52.402;16.678;2022-10-13T13:03:01;16.40;99.90
19344;DHT22;9808;52.402;16.678;2022-10-13T13:05:35;16.50;99.90
19344;DHT22;9808;52.402;16.678;2022-10-13T13:08:20;16.50;1.00
19344;DHT22;9808;52.402;16.678;2022-10-13T13:10:58;16.60;99.90
19344;DHT22;9808;52.402;16.678;2022-10-13T13:13:26;16.60;1.00
19344;DHT22;9808;52.402;16.678;2022-10-13T13:15:53;16.60;1.00
19344;DHT22;9808;52.402;16.678;2022-10-13T13:18:39;16.70;99.90
19344;DHT22;9808;52.402;16.678;2022-10-13T13:21:10;16.60;1.00
19344;DHT22;9808;52.402;16.678;2022-10-13T13:23:38;17.70;1.00
19344;DHT22;9808;52.402;16.678;2022-10-13T13:26:16;17.90;1.00
19344;DHT22;9808;52.402;16.678;2022-10-13T13:28:46;17.50;99.90
19344;DHT22;9808;52.402;16.678;2022-10-13T13:31:18;16.70;1.00
19344;DHT22;9808;52.402;16.678;2022-10-13T13:33:46;16.60;1.00
19344;DHT22;9808;52.402;16.678;2022-10-13T13:36:20;16.60;99.90
19344;DHT22;9808;52.402;16.678;2022-10-13T13:38:48;16.60;99.90
19344;DHT22;9808;52.402;16.678;2022-10-13T13:41:24;16.60;99.90
19344;DHT22;9808;52.402;16.678;2022-10-13T13:43:53;16.60;1.00
19344;DHT22;9808;52.402;16.678;2022-10-13T13:46:23;16.60;1.00
19344;DHT22;9808;52.402;16.678;2022-10-13T13:48:50;16.60;99.90
19344;DHT22;9808;52.402;16.678;2022-10-13T13:51:17;16.50;1.00
19344;DHT22;9808;52.402;16.678;2022-10-13T13:53:44;16.50;1.00
19344;DHT22;9808;52.402;16.678;2022-10-13T13:56:16;18.30;1.00
19344;DHT22;9808;52.402;16.678;2022-10-13T13:58:44;16.50;1.00
19344;DHT22;9808;52.402;16.678;2022-10-13T14:01:12;16.50;99.90
19344;DHT22;9808;52.402;16.678;2022-10-13T14:03:40;16.60;1.00
19344;DHT22;9808;52.402;16.678;2022-10-13T14:06:07;16.50;92.30
19344;DHT22;9808;52.402;16.678;2022-10-13T14:08:35;16.50;99.90
19344;DHT22;9808;52.402;16.678;2022-10-13T14:11:08;16.60;99.90
19344;DHT22;9808;52.402;16.678;2022-10-13T14:13:35;16.50;1.00
19344;DHT22;9808;52.402;16.678;2022-10-13T14:16:02;16.60;1.00
19344;DHT22;9808;52.402;16.678;2022-10-13T14:18:30;16.60;1.00
19344;DHT22;9808;52.402;16.678;2022-10-13T14:20:57;16.60;1.00
19344;DHT22;9808;52.402;16.678;2022-10-13T14:23:23;16.60;1.00
19344;DHT22;9808;52.402;16.678;2022-10-13T14:25:50;16.60;99.90
19344;DHT22;9808;52.402;16.678;2022-10-13T14:28:17;16.60;1.00
19344;DHT22;9808;52.402;16.678;2022-10-13T14:30:44;16.60;1.00
19344;DHT22;9808;52.402;16.678;2022-10-13T14:33:11;16.50;7.10
19344;DHT22;9808;52.402;16.678;2022-10-13T14:35:38;16.50;1.00
19344;DHT22;9808;52.402;16.678;2022-10-13T14:38:04;16.50;1.00
19344;DHT22;9808;52.402;16.678;2022-10-13T14:40:31;16.30;1.00
19344;DHT22;9808;52.402;16.678;2022-10-13T14:42:58;16.40;1.00
19344;DHT22;9808;52.402;16.678;2022-10-13T14:45:25;17.30;99.90
19344;DHT22;9808;52.402;16.678;2022-10-13T14:47:51;16.20;1.00
19344;DHT22;9808;52.402;16.678;2022-10-13T14:50:19;16.10;99.90
19344;DHT22;9808;52.402;16.678;2022-10-13T14:52:46;16.10;1.00
19344;DHT22;9808;52.402;16.678;2022-10-13T14:55:13;17.00;1.00
19344;DHT22;9808;52.402;16.678;2022-10-13T14:57:40;15.70;1.00
19344;DHT22;9808;52.402;16.678;2022-10-13T15:00:07;15.90;1.00
19344;DHT22;9808;52.402;16.678;2022-10-13T15:02:35;15.90;1.00
19344;DHT22;9808;52.402;16.678;2022-10-13T15:05:02;15.80;1.00
19344;DHT22;9808;52.402;16.678;2022-10-13T15:07:29;15.80;1.00
19344;DHT22;9808;52.402;16.678;2022-10-13T15:09:56;15.70;1.00
19344;DHT22;9808;52.402;16.678;2022-10-13T15:12:31;16.40;99.90
19344;DHT22;9808;52.402;16.678;2022-10-13T15:14:58;15.60;99.90
19344;DHT22;9808;52.402;16.678;2022-10-13T15:17:25;15.50;99.90
19344;DHT22;9808;52.402;16.678;2022-10-13T15:19:52;15.40;99.90
19344;DHT22;9808;52.402;16.678;2022-10-13T15:22:19;15.30;99.90
19344;DHT22;9808;52.402;16.678;2022-10-13T15:24:46;15.20;1.00
19344;DHT22;9808;52.402;16.678;2022-10-13T15:27:13;15.20;1.00
19344;DHT22;9808;52.402;16.678;2022-10-13T15:29:39;15.10;1.00
19344;DHT22;9808;52.402;16.678;2022-10-13T15:32:11;16.20;1.00
19344;DHT22;9808;52.402;16.678;2022-10-13T15:34:38;14.90;1.00
19344;DHT22;9808;52.402;16.678;2022-10-13T15:37:06;15.80;1.00
19344;DHT22;9808;52.402;16.678;2022-10-13T15:39:33;14.70;1.00
19344;DHT22;9808;52.402;16.678;2022-10-13T15:42:00;14.70;1.00
19344;DHT22;9808;52.402;16.678;2022-10-13T15:44:26;14.60;1.00
19344;DHT22;9808;52.402;16.678;2022-10-13T15:46:53;16.00;1.00
19344;DHT22;9808;52.402;16.678;2022-10-13T15:49:35;14.40;1.00
19344;DHT22;9808;52.402;16.678;2022-10-13T15:52:05;14.30;1.00
19344;DHT22;9808;52.402;16.678;2022-10-13T15:54:31;14.20;1.00
19344;DHT22;9808;52.402;16.678;2022-10-13T15:56:59;14.20;1.00
19344;DHT22;9808;52.402;16.678;2022-10-13T15:59:25;15.30;1.00
19344;DHT22;9808;52.402;16.678;2022-10-13T16:01:52;15.20;1.00
19344;DHT22;9808;52.402;16.678;2022-10-13T16:04:19;13.90;1.00
19344;DHT22;9808;52.402;16.678;2022-10-13T16:06:46;13.90;1.00
19344;DHT22;9808;52.402;16.678;2022-10-13T16:09:13;13.80;1.00
19344;DHT22;9808;52.402;16.678;2022-10-13T16:11:39;13.70;1.00
19344;DHT22;9808;52.402;16.678;2022-10-13T16:14:16;13.60;1.00
19344;DHT22;9808;52.402;16.678;2022-10-13T16:16:43;15.40;1.00
19344;DHT22;9808;52.402;16.678;2022-10-13T16:19:10;13.50;1.00
19344;DHT22;9808;52.402;16.678;2022-10-13T16:21:37;13.50;1.00
19344;DHT22;9808;52.402;16.678;2022-10-13T16:24:04;13.40;1.00
19344;DHT22;9808;52.402;16.678;2022-10-13T16:26:31;13.40;1.00
19344;DHT22;9808;52.402;16.678;2022-10-13T16:28:57;13.30;1.00
19344;DHT22;9808;52.402;16.678;2022-10-13T16:31:24;13.30;1.00
19344;DHT22;9808;52.402;16.678;2022-10-13T16:33:51;13.30;1.00
19344;DHT22;9808;52.402;16.678;2022-10-13T16:36:18;13.20;1.00
19344;DHT22;9808;52.402;16.678;2022-10-13T16:38:46;13.20;1.00
19344;DHT22;9808;52.402;16.678;2022-10-13T16:41:15;13.10;1.00
19344;DHT22;9808;52.402;16.678;2022-10-13T16:43:43;13.00;1.00
19344;DHT22;9808;52.402;16.678;2022-10-13T16:46:12;14.40;1.00
19344;DHT22;9808;52.402;16.678;2022-10-13T16:48:40;12.90;1.00
19344;DHT22;9808;52.402;16.678;2022-10-13T16:51:10;12.90;1.00
19344;DHT22;9808;52.402;16.678;2022-10-13T16:53:38;12.90;1.00
19344;DHT22;9808;52.402;16.678;2022-10-13T16:56:08;12.80;1.00
19344;DHT22;9808;52.402;16.678;2022-10-13T16:58:35;12.70;1.00
19344;DHT22;9808;52.402;16.678;2022-10-13T17:01:07;13.10;1.00
19344;DHT22;9808;52.402;16.678;2022-10-13T17:03:43;12.60;1.00
19344;DHT22;9808;52.402;16.678;2022-10-13T17:06:11;12.60;1.00
19344;DHT22;9808;52.402;16.678;2022-10-13T17:08:40;12.50;1.00
19344;DHT22;9808;52.402;16.678;2022-10-13T17:11:09;12.50;1.00
19344;DHT22;9808;52.402;16.678;2022-10-13T17:13:36;12.40;1.00
19344;DHT22;9808;52.402;16.678;2022-10-13T17:16:03;12.40;1.00
19344;DHT22;9808;52.402;16.678;2022-10-13T17:18:30;12.40;1.00
19344;DHT22;9808;52.402;16.678;2022-10-13T17:21:02;12.40;1.00
19344;DHT22;9808;52.402;16.678;2022-10-13T17:23:30;12.90;1.00
19344;DHT22;9808;52.402;16.678;2022-10-13T17:26:03;13.50;1.00
19344;DHT22;9808;52.402;16.678;2022-10-13T17:28:30;12.30;1.00
19344;DHT22;9808;52.402;16.678;2022-10-13T17:31:03;12.30;1.00
19344;DHT22;9808;52.402;16.678;2022-10-13T17:33:32;12.30;1.00
19344;DHT22;9808;52.402;16.678;2022-10-13T17:36:01;12.30;1.00
19344;DHT22;9808;52.402;16.678;2022-10-13T17:38:28;13.00;1.00
19344;DHT22;9808;52.402;16.678;2022-10-13T17:41:00;12.20;1.00
19344;DHT22;9808;52.402;16.678;2022-10-13T17:43:27;12.20;1.00
19344;DHT22;9808;52.402;16.678;2022-10-13T17:45:54;12.20;1.00
19344;DHT22;9808;52.402;16.678;2022-10-13T17:48:42;12.20;1.00